createdAt,value
2023-01-04T00:00:53.545Z,1022.24
2023-01-04T00:01:53.513Z,1022.20
2023-01-04T00:02:53.669Z,1022.23
2023-01-04T00:03:53.649Z,1022.18
2023-01-04T00:04:53.471Z,1022.19
2023-01-04T00:05:53.474Z,1022.20
2023-01-04T00:06:53.466Z,1022.17
2023-01-04T00:07:53.438Z,1022.16
2023-01-04T00:08:53.430Z,1022.13
2023-01-04T00:09:53.415Z,1022.12
2023-01-04T00:10:53.405Z,1022.14
2023-01-04T00:11:53.399Z,1022.05
2023-01-04T00:12:53.383Z,1022.03
2023-01-04T00:13:53.373Z,1021.99
2023-01-04T00:14:53.360Z,1022.00
2023-01-04T00:15:53.430Z,1021.98
2023-01-04T00:16:53.358Z,1021.94
2023-01-04T00:17:53.362Z,1021.92
2023-01-04T00:18:53.347Z,1021.88
2023-01-04T00:19:53.335Z,1021.94
2023-01-04T00:20:53.292Z,1021.94
2023-01-04T00:21:53.278Z,1021.89
2023-01-04T00:22:53.292Z,1021.89
2023-01-04T00:23:53.264Z,1021.82
2023-01-04T00:24:53.249Z,1021.77
2023-01-04T00:25:53.237Z,1021.76
2023-01-04T00:26:53.236Z,1021.83
2023-01-04T00:27:53.228Z,1021.81
2023-01-04T00:28:54.540Z,1021.80
2023-01-04T00:29:53.207Z,1021.76
2023-01-04T00:30:53.291Z,1021.71
2023-01-04T00:31:53.262Z,1021.72
2023-01-04T00:32:53.157Z,1021.69
2023-01-04T00:33:53.146Z,1021.71
2023-01-04T00:34:53.135Z,1021.67
2023-01-04T00:35:53.132Z,1021.62
2023-01-04T00:36:53.112Z,1021.64
2023-01-04T00:37:53.103Z,1021.66
2023-01-04T00:38:53.126Z,1021.60
2023-01-04T00:39:53.080Z,1021.57
2023-01-04T00:40:53.068Z,1021.56
2023-01-04T00:42:01.552Z,1021.51
2023-01-04T00:42:54.044Z,1021.48
2023-01-04T00:43:53.035Z,1021.48
2023-01-04T00:44:53.024Z,1021.44
2023-01-04T00:45:53.053Z,1021.42
2023-01-04T00:46:53.253Z,1021.39
2023-01-04T00:47:52.994Z,1021.33
2023-01-04T00:48:56.737Z,1021.39
2023-01-04T00:49:53.966Z,1021.34
2023-01-04T00:50:52.955Z,1021.31
2023-01-04T00:51:52.943Z,1021.30
2023-01-04T00:52:52.937Z,1021.27
2023-01-04T00:53:52.954Z,1021.26
2023-01-04T00:54:52.927Z,1021.26
2023-01-04T00:55:52.896Z,1021.20
2023-01-04T00:56:52.893Z,1021.20
2023-01-04T00:57:52.877Z,1021.16
2023-01-04T00:58:52.865Z,1021.18
2023-01-04T00:59:52.861Z,1021.18
2023-01-04T01:00:52.845Z,1021.11
2023-01-04T01:01:53.033Z,1021.09
2023-01-04T01:02:52.980Z,1021.07
2023-01-04T01:03:52.855Z,1021.04
2023-01-04T01:04:52.804Z,1020.99
2023-01-04T01:05:52.804Z,1020.95
2023-01-04T01:06:52.840Z,1020.93
2023-01-04T01:07:52.768Z,1020.85
2023-01-04T01:08:52.755Z,1020.83
2023-01-04T01:09:52.744Z,1020.82
2023-01-04T01:10:52.795Z,1020.83
2023-01-04T01:11:52.729Z,1020.82
2023-01-04T01:12:52.712Z,1020.82
2023-01-04T01:13:52.718Z,1020.85
2023-01-04T01:14:55.964Z,1020.90
2023-01-04T01:15:53.729Z,1020.88
2023-01-04T01:16:56.384Z,1020.93
2023-01-04T01:17:53.657Z,1020.87
2023-01-04T01:18:52.641Z,1020.90
2023-01-04T01:19:52.643Z,1020.86
2023-01-04T01:20:52.619Z,1020.87
2023-01-04T01:21:52.621Z,1020.90
2023-01-04T01:22:52.596Z,1020.87
2023-01-04T01:23:52.593Z,1020.90
2023-01-04T01:24:52.575Z,1020.92
2023-01-04T01:25:52.563Z,1020.93
2023-01-04T01:26:52.573Z,1020.93
2023-01-04T01:27:52.544Z,1020.88
2023-01-04T01:28:52.528Z,1020.86
2023-01-04T01:29:52.546Z,1020.82
2023-01-04T01:30:52.548Z,1020.87
2023-01-04T01:31:52.587Z,1020.87
2023-01-04T01:32:52.484Z,1020.85
2023-01-04T01:33:52.475Z,1020.86
2023-01-04T01:34:52.461Z,1020.87
2023-01-04T01:35:52.458Z,1020.83
2023-01-04T01:36:52.447Z,1020.88
2023-01-04T01:37:52.434Z,1020.85
2023-01-04T01:38:52.419Z,1020.81
2023-01-04T01:39:52.410Z,1020.81
2023-01-04T01:40:52.395Z,1020.79
2023-01-04T01:41:52.404Z,1020.78
2023-01-04T01:42:52.393Z,1020.80
2023-01-04T01:43:52.362Z,1020.79
2023-01-04T01:44:52.352Z,1020.82
2023-01-04T01:45:52.342Z,1020.86
2023-01-04T01:46:52.396Z,1020.85
2023-01-04T01:47:52.338Z,1020.83
2023-01-04T01:48:52.309Z,1020.84
2023-01-04T01:49:52.293Z,1020.86
2023-01-04T01:50:52.281Z,1020.87
2023-01-04T01:51:52.271Z,1020.91
2023-01-04T01:52:52.258Z,1020.83
2023-01-04T01:53:52.268Z,1020.84
2023-01-04T01:54:52.236Z,1020.84
2023-01-04T01:55:52.226Z,1020.80
2023-01-04T01:56:52.214Z,1020.81
2023-01-04T01:57:52.204Z,1020.79
2023-01-04T01:58:52.216Z,1020.81
2023-01-04T01:59:52.191Z,1020.83
2023-01-04T02:00:52.171Z,1020.85
2023-01-04T02:01:52.325Z,1020.82
2023-01-04T02:02:52.346Z,1020.84
2023-01-04T02:03:52.181Z,1020.83
2023-01-04T02:04:52.137Z,1020.80
2023-01-04T02:05:52.145Z,1020.73
2023-01-04T02:06:52.108Z,1020.75
2023-01-04T02:07:52.092Z,1020.73
2023-01-04T02:08:52.080Z,1020.76
2023-01-04T02:09:52.071Z,1020.75
2023-01-04T02:10:52.057Z,1020.75
2023-01-04T02:11:52.055Z,1020.69
2023-01-04T02:12:52.033Z,1020.72
2023-01-04T02:13:52.039Z,1020.71
2023-01-04T02:14:52.110Z,1020.68
2023-01-04T02:15:52.038Z,1020.62
2023-01-04T02:16:51.991Z,1020.59
2023-01-04T02:17:51.994Z,1020.56
2023-01-04T02:18:51.974Z,1020.56
2023-01-04T02:19:51.957Z,1020.50
2023-01-04T02:20:51.948Z,1020.43
2023-01-04T02:21:51.934Z,1020.41
2023-01-04T02:22:51.924Z,1020.40
2023-01-04T02:23:51.916Z,1020.33
2023-01-04T02:24:51.903Z,1020.28
2023-01-04T02:25:51.924Z,1020.27
2023-01-04T02:26:51.878Z,1020.20
2023-01-04T02:27:51.864Z,1020.16
2023-01-04T02:28:51.858Z,1020.10
2023-01-04T02:29:51.865Z,1020.09
2023-01-04T02:30:51.902Z,1020.07
2023-01-04T02:31:51.903Z,1020.03
2023-01-04T02:32:51.808Z,1019.95
2023-01-04T02:33:51.798Z,1019.94
2023-01-04T02:34:58.319Z,1019.90
2023-01-04T02:35:52.781Z,1019.86
2023-01-04T02:36:51.765Z,1019.82
2023-01-04T02:37:51.754Z,1019.84
2023-01-04T02:38:51.745Z,1019.82
2023-01-04T02:39:51.742Z,1019.77
2023-01-04T02:40:51.724Z,1019.78
2023-01-04T02:41:51.748Z,1019.76
2023-01-04T02:42:51.701Z,1019.76
2023-01-04T02:43:51.691Z,1019.72
2023-01-04T02:44:51.678Z,1019.71
2023-01-04T02:45:51.665Z,1019.68
2023-01-04T02:46:51.787Z,1019.69
2023-01-04T02:47:51.651Z,1019.65
2023-01-04T02:48:51.632Z,1019.58
2023-01-04T02:49:51.623Z,1019.56
2023-01-04T02:50:51.615Z,1019.51
2023-01-04T02:51:51.599Z,1019.50
2023-01-04T02:52:51.587Z,1019.45
2023-01-04T02:53:51.607Z,1019.43
2023-01-04T02:54:51.566Z,1019.39
2023-01-04T02:55:51.563Z,1019.39
2023-01-04T02:56:51.546Z,1019.33
2023-01-04T02:57:51.532Z,1019.34
2023-01-04T02:58:51.527Z,1019.32
2023-01-04T02:59:51.514Z,1019.32
2023-01-04T03:00:51.497Z,1019.32
2023-01-04T03:01:51.584Z,1019.31
2023-01-04T03:02:51.608Z,1019.38
2023-01-04T03:03:51.523Z,1019.36
2023-01-04T03:04:51.452Z,1019.35
2023-01-04T03:05:51.468Z,1019.39
2023-01-04T03:06:51.449Z,1019.40
2023-01-04T03:07:51.425Z,1019.42
2023-01-04T03:08:51.407Z,1019.33
2023-01-04T03:09:51.405Z,1019.34
2023-01-04T03:10:51.385Z,1019.28
2023-01-04T03:11:51.380Z,1019.26
2023-01-04T03:12:51.371Z,1019.22
2023-01-04T03:13:51.354Z,1019.21
2023-01-04T03:14:51.339Z,1019.18
2023-01-04T03:15:51.412Z,1019.21
2023-01-04T03:16:51.317Z,1019.22
2023-01-04T03:17:51.336Z,1019.17
2023-01-04T03:18:51.319Z,1019.13
2023-01-04T03:19:51.286Z,1019.08
2023-01-04T03:20:51.272Z,1019.09
2023-01-04T03:21:51.261Z,1019.05
2023-01-04T03:22:51.257Z,1019.05
2023-01-04T03:23:51.243Z,1019.04
2023-01-04T03:24:51.228Z,1019.00
2023-01-04T03:25:51.216Z,1018.98
2023-01-04T03:26:51.204Z,1018.98
2023-01-04T03:27:51.194Z,1018.95
2023-01-04T03:28:51.186Z,1018.93
2023-01-04T03:29:51.192Z,1018.91
2023-01-04T03:30:51.160Z,1018.88
2023-01-04T03:31:51.260Z,1018.87
2023-01-04T03:32:51.138Z,1018.89
2023-01-04T03:33:51.133Z,1018.87
2023-01-04T03:34:51.137Z,1018.81
2023-01-04T03:35:51.112Z,1018.79
2023-01-04T03:36:51.096Z,1018.71
2023-01-04T03:37:51.081Z,1018.72
2023-01-04T03:38:51.069Z,1018.80
2023-01-04T03:39:51.059Z,1018.65
2023-01-04T03:40:51.048Z,1018.68
2023-01-04T03:41:51.063Z,1018.67
2023-01-04T03:42:51.025Z,1018.67
2023-01-04T03:43:51.013Z,1018.64
2023-01-04T03:44:51.003Z,1018.60
2023-01-04T03:45:50.992Z,1018.55
2023-01-04T03:46:51.114Z,1018.51
2023-01-04T03:47:50.978Z,1018.49
2023-01-04T03:48:50.958Z,1018.53
2023-01-04T03:49:50.951Z,1018.48
2023-01-04T03:50:50.962Z,1018.45
2023-01-04T03:51:50.923Z,1018.44
2023-01-04T03:52:50.922Z,1018.43
2023-01-04T03:53:50.932Z,1018.37
2023-01-04T03:54:50.894Z,1018.32
2023-01-04T03:55:50.884Z,1018.28
2023-01-04T03:56:50.888Z,1018.32
2023-01-04T03:57:50.857Z,1018.28
2023-01-04T03:58:50.847Z,1018.29
2023-01-04T03:59:50.856Z,1018.28
2023-01-04T04:00:50.858Z,1018.23
2023-01-04T04:01:50.950Z,1018.19
2023-01-04T04:02:50.802Z,1018.19
2023-01-04T04:03:50.843Z,1018.18
2023-01-04T04:04:50.781Z,1018.17
2023-01-04T04:05:50.783Z,1018.14
2023-01-04T04:06:50.837Z,1018.17
2023-01-04T04:07:50.773Z,1018.12
2023-01-04T04:08:50.735Z,1017.99
2023-01-04T04:09:50.751Z,1017.96
2023-01-04T04:10:50.712Z,1017.94
2023-01-04T04:11:50.735Z,1017.92
2023-01-04T04:12:50.691Z,1017.94
2023-01-04T04:13:50.675Z,1018.01
2023-01-04T04:14:50.665Z,1018.05
2023-01-04T04:15:50.655Z,1018.03
2023-01-04T04:16:50.690Z,1017.99
2023-01-04T04:17:50.676Z,1017.95
2023-01-04T04:18:50.633Z,1017.93
2023-01-04T04:19:50.623Z,1017.88
2023-01-04T04:20:50.620Z,1017.92
2023-01-04T04:21:50.610Z,1017.89
2023-01-04T04:22:50.613Z,1017.83
2023-01-04T04:23:50.571Z,1017.76
2023-01-04T04:24:50.561Z,1017.73
2023-01-04T04:25:50.561Z,1017.73
2023-01-04T04:26:50.535Z,1017.71
2023-01-04T04:27:50.529Z,1017.73
2023-01-04T04:28:50.506Z,1017.71
2023-01-04T04:29:50.532Z,1017.64
2023-01-04T04:30:50.492Z,1017.60
2023-01-04T04:31:50.570Z,1017.56
2023-01-04T04:32:50.468Z,1017.54
2023-01-04T04:33:50.452Z,1017.55
2023-01-04T04:34:50.447Z,1017.55
2023-01-04T04:35:50.437Z,1017.52
2023-01-04T04:36:50.425Z,1017.56
2023-01-04T04:37:50.425Z,1017.54
2023-01-04T04:38:50.414Z,1017.46
2023-01-04T04:39:50.390Z,1017.39
2023-01-04T04:40:50.377Z,1017.38
2023-01-04T04:41:50.390Z,1017.36
2023-01-04T04:42:50.356Z,1017.32
2023-01-04T04:43:50.339Z,1017.33
2023-01-04T04:44:50.328Z,1017.32
2023-01-04T04:45:50.385Z,1017.27
2023-01-04T04:46:50.307Z,1017.26
2023-01-04T04:47:50.302Z,1017.27
2023-01-04T04:48:50.294Z,1017.20
2023-01-04T04:49:50.272Z,1017.20
2023-01-04T04:50:50.264Z,1017.20
2023-01-04T04:51:50.252Z,1017.18
2023-01-04T04:52:55.767Z,1017.22
2023-01-04T04:53:51.249Z,1017.17
2023-01-04T04:54:50.269Z,1017.17
2023-01-04T04:55:50.206Z,1017.05
2023-01-04T04:56:50.225Z,1016.99
2023-01-04T04:57:50.187Z,1016.95
2023-01-04T04:58:50.178Z,1016.89
2023-01-04T04:59:50.183Z,1016.87
2023-01-04T05:00:50.248Z,1016.84
2023-01-04T05:01:50.308Z,1016.77
2023-01-04T05:02:50.328Z,1016.74
2023-01-04T05:03:50.118Z,1016.68
2023-01-04T05:04:50.108Z,1016.67
2023-01-04T05:05:50.124Z,1016.68
2023-01-04T05:06:50.097Z,1016.71
2023-01-04T05:07:50.074Z,1016.70
2023-01-04T05:08:50.068Z,1016.66
2023-01-04T05:09:50.063Z,1016.61
2023-01-04T05:10:50.052Z,1016.63
2023-01-04T05:11:50.043Z,1016.60
2023-01-04T05:12:55.787Z,1016.58
2023-01-04T05:13:51.004Z,1016.61
2023-01-04T05:14:49.993Z,1016.51
2023-01-04T05:15:49.981Z,1016.47
2023-01-04T05:16:50.103Z,1016.52
2023-01-04T05:17:49.965Z,1016.44
2023-01-04T05:18:49.949Z,1016.42
2023-01-04T05:19:49.949Z,1016.37
2023-01-04T05:20:49.933Z,1016.37
2023-01-04T05:21:49.914Z,1016.32
2023-01-04T05:22:49.915Z,1016.32
2023-01-04T05:23:49.898Z,1016.28
2023-01-04T05:24:49.881Z,1016.25
2023-01-04T05:25:49.870Z,1016.22
2023-01-04T05:26:49.890Z,1016.17
2023-01-04T05:27:49.855Z,1016.15
2023-01-04T05:28:53.626Z,1016.12
2023-01-04T05:29:49.850Z,1016.09
2023-01-04T05:30:49.814Z,1016.11
2023-01-04T05:31:49.959Z,1016.00
2023-01-04T05:32:49.793Z,1016.00
2023-01-04T05:33:49.780Z,1015.91
2023-01-04T05:34:49.775Z,1015.98
2023-01-04T05:35:49.764Z,1015.89
2023-01-04T05:36:49.755Z,1015.91
2023-01-04T05:37:49.742Z,1015.87
2023-01-04T05:38:49.727Z,1015.83
2023-01-04T05:39:49.713Z,1015.89
2023-01-04T05:40:49.738Z,1015.80
2023-01-04T05:41:49.719Z,1015.71
2023-01-04T05:42:49.696Z,1015.70
2023-01-04T05:43:49.674Z,1015.68
2023-01-04T05:44:49.666Z,1015.66
2023-01-04T05:45:49.730Z,1015.65
2023-01-04T05:46:49.637Z,1015.67
2023-01-04T05:47:49.635Z,1015.61
2023-01-04T05:48:49.613Z,1015.55
2023-01-04T05:49:49.610Z,1015.55
2023-01-04T05:50:49.647Z,1015.53
2023-01-04T05:51:49.583Z,1015.49
2023-01-04T05:52:49.569Z,1015.47
2023-01-04T05:53:49.577Z,1015.49
2023-01-04T05:54:49.545Z,1015.46
2023-01-04T05:55:49.560Z,1015.39
2023-01-04T05:56:49.523Z,1015.40
2023-01-04T05:57:49.547Z,1015.43
2023-01-04T05:58:49.557Z,1015.39
2023-01-04T05:59:49.493Z,1015.38
2023-01-04T06:00:49.477Z,1015.33
2023-01-04T06:01:49.666Z,1015.31
2023-01-04T06:02:49.602Z,1015.35
2023-01-04T06:03:49.572Z,1015.25
2023-01-04T06:04:56.431Z,1015.30
2023-01-04T06:05:50.458Z,1015.32
2023-01-04T06:06:49.409Z,1015.27
2023-01-04T06:07:49.399Z,1015.27
2023-01-04T06:08:49.387Z,1015.22
2023-01-04T06:09:49.376Z,1015.27
2023-01-04T06:10:49.365Z,1015.24
2023-01-04T06:11:49.361Z,1015.19
2023-01-04T06:12:49.350Z,1015.22
2023-01-04T06:13:49.342Z,1015.12
2023-01-04T06:14:49.336Z,1015.16
2023-01-04T06:15:49.311Z,1015.07
2023-01-04T06:16:49.388Z,1015.08
2023-01-04T06:17:49.320Z,1015.07
2023-01-04T06:18:49.274Z,1015.07
2023-01-04T06:19:49.285Z,1015.09
2023-01-04T06:20:49.253Z,1015.03
2023-01-04T06:21:49.241Z,1015.07
2023-01-04T06:22:49.230Z,1015.04
2023-01-04T06:23:49.229Z,1014.99
2023-01-04T06:24:49.208Z,1015.05
2023-01-04T06:25:49.201Z,1015.07
2023-01-04T06:26:49.187Z,1014.99
2023-01-04T06:27:49.174Z,1014.98
2023-01-04T06:28:49.161Z,1014.91
2023-01-04T06:29:49.172Z,1014.91
2023-01-04T06:30:49.216Z,1014.80
2023-01-04T06:31:49.154Z,1014.80
2023-01-04T06:32:49.121Z,1014.81
2023-01-04T06:33:49.108Z,1014.77
2023-01-04T06:34:49.100Z,1014.76
2023-01-04T06:35:49.099Z,1014.76
2023-01-04T06:36:49.078Z,1014.67
2023-01-04T06:37:49.066Z,1014.68
2023-01-04T06:38:49.055Z,1014.67
2023-01-04T06:39:49.045Z,1014.65
2023-01-04T06:40:49.027Z,1014.61
2023-01-04T06:41:49.043Z,1014.57
2023-01-04T06:42:49.007Z,1014.50
2023-01-04T06:43:48.994Z,1014.45
2023-01-04T06:44:48.983Z,1014.43
2023-01-04T06:45:49.045Z,1014.46
2023-01-04T06:46:49.108Z,1014.50
2023-01-04T06:47:48.955Z,1014.37
2023-01-04T06:48:48.941Z,1014.51
2023-01-04T06:49:48.928Z,1014.41
2023-01-04T06:50:48.916Z,1014.43
2023-01-04T06:51:48.907Z,1014.36
2023-01-04T06:52:48.907Z,1014.32
2023-01-04T06:53:48.890Z,1014.44
2023-01-04T06:54:48.873Z,1014.32
2023-01-04T06:55:48.863Z,1014.29
2023-01-04T06:56:48.849Z,1014.27
2023-01-04T06:57:48.838Z,1014.27
2023-01-04T06:58:48.826Z,1014.27
2023-01-04T06:59:48.841Z,1014.25
2023-01-04T07:00:48.804Z,1014.19
2023-01-04T07:01:48.920Z,1014.21
2023-01-04T07:03:14.598Z,1014.19
2023-01-04T07:03:49.768Z,1014.19
2023-01-04T07:04:48.904Z,1014.16
2023-01-04T07:05:48.754Z,1014.08
2023-01-04T07:06:48.736Z,1014.14
2023-01-04T07:07:48.726Z,1014.09
2023-01-04T07:08:48.720Z,1014.09
2023-01-04T07:09:48.707Z,1014.08
2023-01-04T07:10:48.696Z,1014.12
2023-01-04T07:11:48.701Z,1014.05
2023-01-04T07:12:48.687Z,1014.03
2023-01-04T07:13:48.657Z,1014.05
2023-01-04T07:14:48.660Z,1014.03
2023-01-04T07:15:48.678Z,1013.99
2023-01-04T07:16:48.676Z,1013.91
2023-01-04T07:17:48.638Z,1013.90
2023-01-04T07:18:48.632Z,1013.92
2023-01-04T07:19:48.593Z,1013.79
2023-01-04T07:20:48.580Z,1013.74
2023-01-04T07:21:48.569Z,1013.77
2023-01-04T07:22:48.557Z,1013.75
2023-01-04T07:23:48.553Z,1013.74
2023-01-04T07:24:48.553Z,1013.73
2023-01-04T07:25:48.533Z,1013.73
2023-01-04T07:26:48.511Z,1013.66
2023-01-04T07:27:48.510Z,1013.71
2023-01-04T07:28:48.489Z,1013.67
2023-01-04T07:29:48.489Z,1013.72
2023-01-04T07:30:48.491Z,1013.68
2023-01-04T07:31:48.462Z,1013.65
2023-01-04T07:32:48.457Z,1013.59
2023-01-04T07:33:48.438Z,1013.76
2023-01-04T07:34:48.439Z,1013.62
2023-01-04T07:35:48.416Z,1013.65
2023-01-04T07:36:48.474Z,1013.61
2023-01-04T07:37:53.814Z,1013.63
2023-01-04T07:38:49.374Z,1013.56
2023-01-04T07:39:48.365Z,1013.56
2023-01-04T07:40:56.019Z,1013.56
2023-01-04T07:41:49.350Z,1013.55
2023-01-04T07:42:48.336Z,1013.51
2023-01-04T07:43:48.321Z,1013.53
2023-01-04T07:44:48.310Z,1013.51
2023-01-04T07:45:48.331Z,1013.50
2023-01-04T07:46:48.418Z,1013.51
2023-01-04T07:47:48.298Z,1013.47
2023-01-04T07:48:48.270Z,1013.45
2023-01-04T07:49:48.254Z,1013.42
2023-01-04T07:50:48.265Z,1013.45
2023-01-04T07:51:48.232Z,1013.43
2023-01-04T07:52:48.249Z,1013.41
2023-01-04T07:53:48.225Z,1013.43
2023-01-04T07:54:48.197Z,1013.34
2023-01-04T07:55:48.187Z,1013.30
2023-01-04T07:56:48.180Z,1013.28
2023-01-04T07:57:48.172Z,1013.34
2023-01-04T07:58:48.152Z,1013.23
2023-01-04T07:59:48.148Z,1013.18
2023-01-04T08:00:48.130Z,1013.16
2023-01-04T08:01:48.199Z,1013.17
2023-01-04T08:02:48.249Z,1013.13
2023-01-04T08:03:48.096Z,1013.08
2023-01-04T08:04:48.176Z,1013.04
2023-01-04T08:05:48.089Z,1013.01
2023-01-04T08:06:48.177Z,1013.09
2023-01-04T08:07:48.053Z,1013.04
2023-01-04T08:08:48.048Z,1013.04
2023-01-04T08:09:48.029Z,1012.93
2023-01-04T08:10:48.018Z,1012.92
2023-01-04T08:11:48.013Z,1012.97
2023-01-04T08:12:47.996Z,1012.87
2023-01-04T08:13:47.988Z,1012.90
2023-01-04T08:14:47.973Z,1012.83
2023-01-04T08:15:48.092Z,1012.74
2023-01-04T08:16:47.956Z,1012.75
2023-01-04T08:17:47.984Z,1012.68
2023-01-04T08:18:47.928Z,1012.75
2023-01-04T08:19:47.919Z,1012.63
2023-01-04T08:20:50.102Z,1012.63
2023-01-04T08:21:48.895Z,1012.59
2023-01-04T08:22:47.900Z,1012.60
2023-01-04T08:23:47.877Z,1012.53
2023-01-04T08:24:47.860Z,1012.60
2023-01-04T08:25:47.850Z,1012.62
2023-01-04T08:26:47.841Z,1012.53
2023-01-04T08:27:47.846Z,1012.54
2023-01-04T08:28:47.816Z,1012.52
2023-01-04T08:29:47.815Z,1012.54
2023-01-04T08:30:47.838Z,1012.52
2023-01-04T08:31:47.895Z,1012.53
2023-01-04T08:32:47.771Z,1012.64
2023-01-04T08:33:47.768Z,1012.50
2023-01-04T08:34:47.748Z,1012.42
2023-01-04T08:35:47.751Z,1012.44
2023-01-04T08:36:47.757Z,1012.63
2023-01-04T08:37:47.717Z,1012.58
2023-01-04T08:38:59.387Z,1012.65
2023-01-04T08:39:49.944Z,1012.67
2023-01-04T08:41:00.040Z,1012.71
2023-01-04T08:41:57.836Z,1012.65
2023-01-04T08:42:48.654Z,1012.68
2023-01-04T08:43:47.652Z,1012.68
2023-01-04T08:44:47.673Z,1012.65
2023-01-04T08:45:47.625Z,1012.68
2023-01-04T08:46:47.673Z,1012.71
2023-01-04T08:47:47.609Z,1012.56
2023-01-04T08:48:47.611Z,1012.44
2023-01-04T08:49:47.598Z,1012.51
2023-01-04T08:50:47.568Z,1012.45
2023-01-04T08:51:47.556Z,1012.45
2023-01-04T08:52:47.552Z,1012.42
2023-01-04T08:53:47.545Z,1012.47
2023-01-04T08:54:47.598Z,1012.34
2023-01-04T08:55:47.516Z,1012.51
2023-01-04T08:56:47.500Z,1012.46
2023-01-04T08:57:47.487Z,1012.41
2023-01-04T08:58:47.484Z,1012.48
2023-01-04T08:59:47.473Z,1012.44
2023-01-04T09:00:47.457Z,1012.42
2023-01-04T09:01:47.566Z,1012.45
2023-01-04T09:02:47.610Z,1012.44
2023-01-04T09:03:47.422Z,1012.39
2023-01-04T09:04:47.524Z,1012.36
2023-01-04T09:05:47.405Z,1012.35
2023-01-04T09:06:47.412Z,1012.36
2023-01-04T09:07:47.383Z,1012.38
2023-01-04T09:08:47.366Z,1012.31
2023-01-04T09:09:47.366Z,1012.35
2023-01-04T09:10:47.367Z,1012.34
2023-01-04T09:11:47.339Z,1012.32
2023-01-04T09:12:47.321Z,1012.25
2023-01-04T09:13:47.313Z,1012.22
2023-01-04T09:14:47.299Z,1012.30
2023-01-04T09:15:47.344Z,1012.21
2023-01-04T09:16:47.328Z,1012.33
2023-01-04T09:18:20.584Z,1012.26
2023-01-04T09:18:48.253Z,1012.17
2023-01-04T09:19:47.241Z,1012.19
2023-01-04T09:20:47.238Z,1012.27
2023-01-04T09:21:47.240Z,1012.31
2023-01-04T09:22:47.211Z,1012.27
2023-01-04T09:23:47.210Z,1012.25
2023-01-04T09:24:47.194Z,1012.21
2023-01-04T09:25:47.179Z,1012.19
2023-01-04T09:26:47.178Z,1012.18
2023-01-04T09:27:47.157Z,1012.20
2023-01-04T09:28:47.150Z,1012.16
2023-01-04T09:29:47.140Z,1012.08
2023-01-04T09:30:47.118Z,1012.05
2023-01-04T09:31:47.555Z,1012.00
2023-01-04T09:32:47.432Z,1012.00
2023-01-04T09:34:13.336Z,1012.19
2023-01-04T09:34:48.083Z,1012.14
2023-01-04T09:35:47.066Z,1011.97
2023-01-04T09:36:47.057Z,1011.96
2023-01-04T09:37:47.043Z,1011.93
2023-01-04T09:38:47.031Z,1011.87
2023-01-04T09:39:47.020Z,1011.99
2023-01-04T09:40:47.016Z,1011.78
2023-01-04T09:41:47.002Z,1011.76
2023-01-04T09:42:47.002Z,1011.72
2023-01-04T09:43:46.982Z,1011.67
2023-01-04T09:45:22.053Z,1011.61
2023-01-04T09:45:47.956Z,1011.66
2023-01-04T09:46:46.986Z,1011.53
2023-01-04T09:47:46.928Z,1011.53
2023-01-04T09:48:46.917Z,1011.57
2023-01-04T09:49:46.907Z,1011.59
2023-01-04T09:50:46.895Z,1011.53
2023-01-04T09:51:46.902Z,1011.65
2023-01-04T09:52:46.879Z,1011.56
2023-01-04T09:53:46.862Z,1011.48
2023-01-04T09:54:46.849Z,1011.65
2023-01-04T09:55:46.840Z,1011.60
2023-01-04T09:56:46.825Z,1011.46
2023-01-04T09:57:46.824Z,1011.64
2023-01-04T09:58:46.994Z,1011.58
2023-01-04T09:59:46.794Z,1011.38
2023-01-04T10:00:47.160Z,1011.62
2023-01-04T10:01:47.061Z,1011.31
2023-01-04T10:02:46.915Z,1011.35
2023-01-04T10:03:46.858Z,1011.28
2023-01-04T10:04:46.736Z,1011.29
2023-01-04T10:05:46.725Z,1011.27
2023-01-04T10:06:46.714Z,1011.27
2023-01-04T10:07:47.063Z,1011.15
2023-01-04T10:08:46.913Z,1011.22
2023-01-04T10:09:46.915Z,1011.26
2023-01-04T10:10:46.672Z,1011.18
2023-01-04T10:11:46.657Z,1011.11
2023-01-04T10:12:46.653Z,1011.13
2023-01-04T10:13:46.635Z,1011.15
2023-01-04T10:14:46.827Z,1011.09
2023-01-04T10:15:46.685Z,1011.08
2023-01-04T10:17:14.339Z,1011.02
2023-01-04T10:21:47.574Z,1011.02
2023-01-04T10:22:46.540Z,1011.11
2023-01-04T10:23:46.522Z,1010.92
2023-01-04T10:24:46.527Z,1010.95
2023-01-04T10:25:46.509Z,1010.92
2023-01-04T10:26:46.518Z,1010.81
2023-01-04T10:27:46.477Z,1010.76
2023-01-04T10:28:46.472Z,1010.68
2023-01-04T10:29:46.486Z,1010.73
2023-01-04T10:30:46.466Z,1010.83
2023-01-04T10:31:46.530Z,1010.74
2023-01-04T10:32:46.452Z,1010.69
2023-01-04T10:33:46.414Z,1010.73
2023-01-04T10:34:46.409Z,1010.63
2023-01-04T10:35:46.412Z,1010.65
2023-01-04T10:36:46.390Z,1010.63
2023-01-04T10:37:46.368Z,1010.68
2023-01-04T10:38:46.361Z,1010.51
2023-01-04T10:39:46.350Z,1010.57
2023-01-04T10:40:46.332Z,1010.61
2023-01-04T10:41:46.326Z,1010.50
2023-01-04T10:42:46.310Z,1010.56
2023-01-04T10:44:13.881Z,1010.43
2023-01-04T10:44:47.307Z,1010.41
2023-01-04T10:45:46.273Z,1010.40
2023-01-04T10:46:46.317Z,1010.43
2023-01-04T10:47:46.253Z,1010.35
2023-01-04T10:48:46.241Z,1010.45
2023-01-04T10:49:46.232Z,1010.37
2023-01-04T10:50:46.235Z,1010.32
2023-01-04T10:51:46.209Z,1010.30
2023-01-04T10:52:46.197Z,1010.28
2023-01-04T10:53:47.574Z,1010.15
2023-01-04T10:54:46.684Z,1010.23
2023-01-04T10:56:24.150Z,1010.19
2023-01-04T10:56:47.378Z,1010.20
2023-01-04T10:57:46.708Z,1010.17
2023-01-04T10:58:46.918Z,1010.31
2023-01-04T10:59:46.119Z,1010.12
2023-01-04T11:00:46.144Z,1010.11
2023-01-04T11:01:46.355Z,1010.03
2023-01-04T11:02:46.234Z,1010.03
2023-01-04T11:03:46.115Z,1010.01
2023-01-04T11:04:46.063Z,1010.02
2023-01-04T11:05:46.060Z,1010.03
2023-01-04T11:06:46.037Z,1010.03
2023-01-04T11:07:46.031Z,1009.97
2023-01-04T11:08:46.031Z,1009.88
2023-01-04T11:09:46.007Z,1009.91
2023-01-04T11:10:45.995Z,1009.96
2023-01-04T11:11:45.991Z,1009.84
2023-01-04T11:12:45.980Z,1009.81
2023-01-04T11:13:45.960Z,1009.79
2023-01-04T11:14:45.964Z,1009.81
2023-01-04T11:15:45.947Z,1009.73
2023-01-04T11:16:45.989Z,1009.75
2023-01-04T11:17:45.917Z,1009.80
2023-01-04T11:18:45.924Z,1009.65
2023-01-04T11:19:45.895Z,1009.69
2023-01-04T11:20:45.915Z,1009.63
2023-01-04T11:21:45.871Z,1009.95
2023-01-04T11:22:45.939Z,1009.58
2023-01-04T11:23:45.849Z,1009.56
2023-01-04T11:25:07.824Z,1009.55
2023-01-04T11:25:50.458Z,1009.65
2023-01-04T11:26:46.828Z,1009.47
2023-01-04T11:27:45.807Z,1009.53
2023-01-04T11:28:45.796Z,1009.51
2023-01-04T11:29:45.794Z,1009.39
2023-01-04T11:30:45.774Z,1009.71
2023-01-04T11:31:45.815Z,1009.39
2023-01-04T11:32:45.747Z,1009.32
2023-01-04T11:33:45.736Z,1009.42
2023-01-04T11:34:45.743Z,1009.40
2023-01-04T11:35:45.714Z,1009.32
2023-01-04T11:36:45.709Z,1009.34
2023-01-04T11:37:45.696Z,1009.30
2023-01-04T11:38:45.679Z,1009.32
2023-01-04T11:39:45.668Z,1009.33
2023-01-04T11:40:45.657Z,1009.30
2023-01-04T11:41:45.645Z,1009.34
2023-01-04T11:42:45.652Z,1009.28
2023-01-04T11:43:45.630Z,1009.25
2023-01-04T11:44:45.613Z,1009.32
2023-01-04T11:45:45.623Z,1009.36
2023-01-04T11:46:45.589Z,1009.46
2023-01-04T11:47:45.581Z,1009.33
2023-01-04T11:48:45.568Z,1009.24
2023-01-04T11:49:45.574Z,1009.42
2023-01-04T11:50:45.568Z,1009.24
2023-01-04T11:51:45.535Z,1009.20
2023-01-04T11:52:45.530Z,1009.32
2023-01-04T11:53:45.511Z,1009.16
2023-01-04T11:54:45.511Z,1009.22
2023-01-04T11:55:45.518Z,1009.14
2023-01-04T11:56:45.478Z,1009.50
2023-01-04T11:57:45.468Z,1009.16
2023-01-04T11:58:45.456Z,1009.10
2023-01-04T11:59:45.445Z,1009.09
2023-01-04T12:00:45.432Z,1008.93
2023-01-04T12:01:45.501Z,1009.06
2023-01-04T12:03:02.131Z,1009.03
2023-01-04T12:03:46.397Z,1008.99
2023-01-04T12:04:45.386Z,1009.00
2023-01-04T12:05:45.376Z,1008.96
2023-01-04T12:06:45.383Z,1008.95
2023-01-04T12:07:45.370Z,1008.99
2023-01-04T12:08:45.358Z,1008.92
2023-01-04T12:09:45.344Z,1008.94